createdAt,value
2019-03-02T00:01:29.003Z,9.39
2019-03-02T00:03:56.799Z,9.44
2019-03-02T00:06:23.657Z,9.43
2019-03-02T00:08:50.671Z,9.41
2019-03-02T00:11:17.820Z,9.47
2019-03-02T00:13:46.490Z,9.51
2019-03-02T00:16:13.183Z,9.40
2019-03-02T00:18:40.002Z,9.43
2019-03-02T00:21:06.688Z,9.40
2019-03-02T00:23:33.423Z,9.39
2019-03-02T00:26:00.507Z,9.39
2019-03-02T00:28:27.344Z,9.28
2019-03-02T00:30:54.873Z,9.34
2019-03-02T00:33:22.709Z,9.28
2019-03-02T00:35:49.463Z,9.35
2019-03-02T00:38:16.171Z,9.33
2019-03-02T00:40:42.942Z,9.34
2019-03-02T00:43:09.643Z,9.37
2019-03-02T00:45:36.372Z,9.38
2019-03-02T00:48:03.084Z,9.23
2019-03-02T00:50:30.156Z,9.24
2019-03-02T00:52:59.137Z,9.32
2019-03-02T00:55:28.561Z,9.35
2019-03-02T00:57:54.531Z,9.28
2019-03-02T01:00:21.209Z,9.26
2019-03-02T01:02:48.312Z,9.28
2019-03-02T01:05:15.039Z,9.27
2019-03-02T01:07:42.177Z,9.31
2019-03-02T01:10:09.927Z,9.32
2019-03-02T01:12:36.652Z,9.32
2019-03-02T01:15:08.503Z,9.30
2019-03-02T01:17:34.937Z,9.36
2019-03-02T01:20:01.781Z,9.41
2019-03-02T01:22:28.890Z,9.42
2019-03-02T01:24:55.637Z,9.35
2019-03-02T01:27:22.638Z,9.39
2019-03-02T01:29:51.634Z,9.40
2019-03-02T01:32:18.797Z,9.38
2019-03-02T01:34:45.926Z,9.45
2019-03-02T01:37:12.628Z,9.45
2019-03-02T01:39:39.419Z,9.50
2019-03-02T01:42:06.436Z,9.52
2019-03-02T01:44:33.134Z,9.51
2019-03-02T01:46:59.845Z,9.48
2019-03-02T01:49:26.579Z,9.57
2019-03-02T01:51:54.750Z,9.54
2019-03-02T01:54:22.082Z,9.58
2019-03-02T01:56:48.777Z,9.45
2019-03-02T01:59:15.483Z,9.45
2019-03-02T02:01:42.209Z,9.47
2019-03-02T02:04:09.280Z,9.49
2019-03-02T02:06:36.181Z,9.51
2019-03-02T02:09:05.699Z,9.48
2019-03-02T02:11:32.735Z,9.41
2019-03-02T02:13:59.438Z,9.40
2019-03-02T02:16:26.151Z,9.42
2019-03-02T02:18:53.597Z,9.41
2019-03-02T02:21:20.294Z,9.42
2019-03-02T02:23:50.853Z,9.44
2019-03-02T02:26:17.657Z,9.48
2019-03-02T02:28:44.817Z,9.39
2019-03-02T02:31:11.608Z,9.33
2019-03-02T02:33:43.257Z,9.30
2019-03-02T02:36:07.421Z,9.34
2019-03-02T02:38:34.127Z,9.40
2019-03-02T02:41:00.865Z,9.39
2019-03-02T02:43:27.666Z,9.35
2019-03-02T02:45:55.270Z,9.24
2019-03-02T02:48:26.276Z,9.26
2019-03-02T02:50:50.649Z,9.19
2019-03-02T02:53:17.453Z,9.15
2019-03-02T02:55:44.839Z,9.12
2019-03-02T02:58:12.598Z,9.04
2019-03-02T03:00:40.196Z,9.06
2019-03-02T03:03:06.895Z,9.07
2019-03-02T03:05:33.667Z,9.13
2019-03-02T03:08:00.513Z,9.20
2019-03-02T03:10:35.245Z,9.24
2019-03-02T03:13:04.052Z,9.16
2019-03-02T03:15:36.952Z,9.04
2019-03-02T03:18:07.295Z,9.01
2019-03-02T03:20:32.964Z,9.05
2019-03-02T03:23:01.981Z,9.07
2019-03-02T03:25:28.759Z,9.02
2019-03-02T03:27:55.492Z,9.07
2019-03-02T03:30:33.984Z,9.03
2019-03-02T03:32:55.740Z,9.02
2019-03-02T03:35:20.147Z,9.01
2019-03-02T03:37:51.194Z,9.08
2019-03-02T03:40:20.077Z,9.04
2019-03-02T03:42:46.081Z,9.09
2019-03-02T03:45:12.931Z,9.13
2019-03-02T03:47:43.550Z,9.03
2019-03-02T03:50:14.074Z,9.09
2019-03-02T03:52:38.958Z,9.11
2019-03-02T03:55:07.585Z,9.12
2019-03-02T03:57:34.330Z,9.08
2019-03-02T04:00:01.075Z,9.12
2019-03-02T04:02:31.350Z,9.08
2019-03-02T04:04:56.381Z,9.10
2019-03-02T04:07:23.128Z,9.00
2019-03-02T04:09:49.869Z,8.99
2019-03-02T04:12:19.772Z,9.02
2019-03-02T04:14:48.928Z,9.05
2019-03-02T04:17:15.624Z,9.07
2019-03-02T04:19:42.585Z,9.12
2019-03-02T04:22:10.814Z,9.09
2019-03-02T04:24:39.553Z,9.08
2019-03-02T04:27:06.494Z,9.12
2019-03-02T04:29:33.456Z,9.03
2019-03-02T04:32:00.512Z,9.03
2019-03-02T04:34:27.317Z,8.95
2019-03-02T04:36:54.492Z,8.93
2019-03-02T04:39:21.242Z,8.90
2019-03-02T04:41:47.932Z,8.89
2019-03-02T04:44:14.651Z,8.85
2019-03-02T04:46:41.513Z,8.92
2019-03-02T04:49:10.965Z,8.91
2019-03-02T04:51:38.819Z,8.89
2019-03-02T04:54:05.924Z,8.96
2019-03-02T04:56:34.556Z,8.87
2019-03-02T04:59:02.974Z,8.91
2019-03-02T05:01:30.112Z,8.89
2019-03-02T05:03:57.297Z,8.93
2019-03-02T05:06:25.056Z,8.98
2019-03-02T05:08:51.756Z,8.93
2019-03-02T05:11:18.578Z,8.99
2019-03-02T05:13:47.094Z,9.07
2019-03-02T05:16:13.918Z,9.10
2019-03-02T05:18:40.618Z,9.02
2019-03-02T05:21:07.745Z,9.01
2019-03-02T05:23:36.526Z,9.07
2019-03-02T05:26:03.277Z,8.91
2019-03-02T05:28:32.988Z,8.87
2019-03-02T05:31:02.641Z,8.94
2019-03-02T05:33:31.096Z,9.02
2019-03-02T05:35:57.806Z,9.03
2019-03-02T05:38:24.962Z,9.14
2019-03-02T05:40:51.692Z,9.06
2019-03-02T05:43:18.629Z,9.03
2019-03-02T05:45:45.455Z,8.93
2019-03-02T05:48:12.270Z,8.95
2019-03-02T05:50:39.354Z,8.89
2019-03-02T05:53:06.538Z,8.83
2019-03-02T05:55:33.223Z,8.79
2019-03-02T05:58:00.020Z,8.87
2019-03-02T06:00:26.724Z,8.77
2019-03-02T06:02:53.456Z,8.84
2019-03-02T06:05:20.162Z,8.96
2019-03-02T06:07:47.172Z,8.99
2019-03-02T06:10:13.977Z,8.96
2019-03-02T06:12:40.676Z,8.88
2019-03-02T06:15:08.669Z,8.89
2019-03-02T06:17:35.417Z,8.88
2019-03-02T06:20:04.166Z,8.89
2019-03-02T06:22:31.144Z,8.92
2019-03-02T06:24:57.839Z,8.90
2019-03-02T06:27:25.345Z,8.85
2019-03-02T06:29:52.152Z,8.85
2019-03-02T06:32:18.962Z,8.90
2019-03-02T06:34:45.705Z,8.92
2019-03-02T06:37:12.443Z,8.83
2019-03-02T06:39:41.069Z,8.77
2019-03-02T06:42:09.936Z,8.86
2019-03-02T06:44:36.758Z,8.95
2019-03-02T06:47:05.647Z,8.94
2019-03-02T06:49:37.114Z,8.94
2019-03-02T06:52:03.814Z,8.91
2019-03-02T06:54:30.666Z,8.69
2019-03-02T06:56:59.062Z,9.02
2019-03-02T06:59:25.829Z,9.07
2019-03-02T07:01:52.959Z,9.08
2019-03-02T07:04:21.872Z,9.09
2019-03-02T07:06:48.977Z,9.15
2019-03-02T07:09:15.727Z,8.99
2019-03-02T07:11:44.352Z,8.91
2019-03-02T07:14:11.054Z,8.87
2019-03-02T07:16:37.771Z,8.96
2019-03-02T07:19:23.393Z,9.05
2019-03-02T07:21:50.099Z,9.06
2019-03-02T07:24:16.843Z,9.12
2019-03-02T07:26:43.930Z,9.06
2019-03-02T07:29:13.895Z,9.09
2019-03-02T07:31:39.301Z,9.13
2019-03-02T07:34:08.799Z,9.00
2019-03-02T07:36:35.340Z,8.99
2019-03-02T07:39:03.018Z,9.10
2019-03-02T07:41:30.093Z,9.20
2019-03-02T07:43:56.826Z,9.23
2019-03-02T07:46:23.679Z,9.14
2019-03-02T07:48:52.834Z,9.16
2019-03-02T07:51:19.688Z,9.13
2019-03-02T07:53:46.437Z,9.18
2019-03-02T07:56:13.462Z,9.16
2019-03-02T07:58:40.228Z,9.02
2019-03-02T08:01:06.973Z,9.02
2019-03-02T08:03:34.035Z,9.17
2019-03-02T08:06:01.339Z,9.14
2019-03-02T08:08:28.303Z,9.28
2019-03-02T08:10:55.168Z,9.37
2019-03-02T08:13:21.927Z,9.34
2019-03-02T08:15:48.753Z,9.35
2019-03-02T08:18:15.499Z,9.38
2019-03-02T08:20:42.854Z,9.35
2019-03-02T08:23:09.921Z,9.20
2019-03-02T08:25:37.653Z,9.22
2019-03-02T08:28:06.732Z,9.15
2019-03-02T08:30:37.481Z,9.18
2019-03-02T08:33:04.222Z,9.23
2019-03-02T08:35:30.921Z,9.23
2019-03-02T08:37:58.037Z,9.21
2019-03-02T08:40:25.474Z,9.27
2019-03-02T08:42:52.419Z,9.29
2019-03-02T08:45:22.565Z,9.31
2019-03-02T08:47:50.732Z,9.35
2019-03-02T08:50:19.934Z,9.33
2019-03-02T08:52:46.679Z,9.28
2019-03-02T08:55:13.956Z,9.38
2019-03-02T08:57:40.739Z,9.42
2019-03-02T09:00:11.305Z,9.41
2019-03-02T09:02:38.385Z,9.41
2019-03-02T09:05:07.639Z,9.55
2019-03-02T09:07:35.639Z,9.62
2019-03-02T09:10:02.521Z,9.66
2019-03-02T09:12:29.605Z,9.75
2019-03-02T09:14:56.312Z,9.73
2019-03-02T09:17:23.053Z,9.67
2019-03-02T09:19:50.031Z,9.65
2019-03-02T09:22:16.980Z,9.73
2019-03-02T09:24:45.883Z,9.78
2019-03-02T09:27:12.806Z,9.84
2019-03-02T09:29:42.091Z,9.84
2019-03-02T09:32:11.014Z,9.84
2019-03-02T09:34:40.530Z,9.84
2019-03-02T09:37:08.118Z,9.84
2019-03-02T09:39:38.204Z,9.81
2019-03-02T09:42:05.247Z,9.77
2019-03-02T09:44:32.757Z,9.82
2019-03-02T09:47:00.984Z,9.88
2019-03-02T09:49:28.015Z,9.94
2019-03-02T09:51:56.996Z,9.94
2019-03-02T09:54:23.881Z,10.04
2019-03-02T09:56:50.659Z,10.10
2019-03-02T09:59:17.795Z,10.17
2019-03-02T10:01:45.091Z,10.30
2019-03-02T10:04:15.010Z,10.34
2019-03-02T10:06:41.723Z,10.34
2019-03-02T10:09:08.964Z,10.23
2019-03-02T10:11:35.742Z,10.24
2019-03-02T10:14:24.908Z,10.34
2019-03-02T10:16:50.721Z,10.42
2019-03-02T10:19:17.442Z,10.60
2019-03-02T10:21:47.458Z,10.67
2019-03-02T10:24:13.538Z,10.54
2019-03-02T10:26:43.471Z,10.48
2019-03-02T10:29:10.850Z,10.54
2019-03-02T10:31:40.535Z,10.63
2019-03-02T10:34:08.628Z,10.71
2019-03-02T10:36:38.165Z,10.79
2019-03-02T10:39:06.342Z,10.97
2019-03-02T10:41:33.065Z,11.15
2019-03-02T10:43:59.946Z,11.32
2019-03-02T10:46:28.959Z,11.33
2019-03-02T10:48:59.168Z,11.25
2019-03-02T10:51:26.051Z,11.27
2019-03-02T10:53:55.931Z,11.17
2019-03-02T10:56:24.707Z,11.14
2019-03-02T10:59:03.006Z,11.16
2019-03-02T11:01:30.434Z,11.11
2019-03-02T11:04:00.435Z,11.14
2019-03-02T11:06:50.153Z,11.19
2019-03-02T11:09:40.805Z,11.22
2019-03-02T11:12:28.433Z,11.33
2019-03-02T11:15:04.122Z,11.34
2019-03-02T11:17:49.090Z,11.33
2019-03-02T11:20:34.256Z,11.41
2019-03-02T11:23:19.646Z,11.51
2019-03-02T11:26:08.060Z,11.61
2019-03-02T11:28:49.037Z,11.64
2019-03-02T11:31:29.047Z,11.66
2019-03-02T11:34:18.282Z,11.67
2019-03-02T11:37:03.512Z,11.76
2019-03-02T11:39:44.321Z,11.99
2019-03-02T11:42:36.523Z,12.08
2019-03-02T11:45:13.070Z,12.31
2019-03-02T11:47:57.973Z,12.34
2019-03-02T11:50:52.215Z,12.31
2019-03-02T11:53:24.697Z,12.13
2019-03-02T11:56:11.005Z,12.10
2019-03-02T11:59:10.493Z,11.96
2019-03-02T12:02:03.933Z,12.08
2019-03-02T12:04:52.299Z,12.04
2019-03-02T12:07:38.267Z,12.12
2019-03-02T12:10:26.914Z,12.09
2019-03-02T12:13:12.494Z,12.07
2019-03-02T12:16:11.039Z,12.29
2019-03-02T12:18:51.056Z,12.56
2019-03-02T12:21:45.481Z,12.71
2019-03-02T12:24:22.269Z,12.62
2019-03-02T12:27:06.518Z,12.69
2019-03-02T12:29:55.987Z,12.70
2019-03-02T12:32:57.998Z,12.77
2019-03-02T12:35:44.974Z,12.80
2019-03-02T12:38:29.180Z,12.79
2019-03-02T12:41:18.993Z,12.76
2019-03-02T12:44:04.336Z,12.78
2019-03-02T12:46:43.571Z,12.79
2019-03-02T12:49:19.425Z,7.69
2019-03-02T12:52:15.822Z,12.84
2019-03-02T12:55:00.430Z,12.75
2019-03-02T12:57:46.652Z,12.80
2019-03-02T13:00:24.431Z,12.75
2019-03-02T13:03:07.983Z,12.66
2019-03-02T13:05:47.996Z,12.55
2019-03-02T13:08:46.593Z,12.51
2019-03-02T13:11:21.029Z,12.55
2019-03-02T13:13:56.697Z,12.64
2019-03-02T13:16:41.130Z,12.74
2019-03-02T13:19:32.326Z,12.81
2019-03-02T13:22:05.226Z,12.72
2019-03-02T13:24:42.330Z,12.79
2019-03-02T13:27:28.814Z,13.10
2019-03-02T13:30:07.539Z,13.38
2019-03-02T13:32:52.517Z,13.50
2019-03-02T13:35:59.786Z,13.51
2019-03-02T13:38:30.009Z,13.53
2019-03-02T13:41:30.321Z,13.44
2019-03-02T13:44:14.710Z,13.33
2019-03-02T13:46:51.270Z,13.33
2019-03-02T13:49:46.592Z,13.19
2019-03-02T13:52:53.326Z,13.18
2019-03-02T13:55:34.597Z,13.08
2019-03-02T13:58:14.289Z,13.01
2019-03-02T14:01:06.422Z,12.88
2019-03-02T14:03:52.850Z,12.82
2019-03-02T14:06:40.812Z,12.97
2019-03-02T14:09:30.198Z,13.02
2019-03-02T14:12:15.970Z,13.02
2019-03-02T14:15:03.018Z,13.04
2019-03-02T14:17:55.395Z,12.92
2019-03-02T14:20:31.532Z,12.99
2019-03-02T14:23:32.212Z,13.09
2019-03-02T14:26:04.616Z,13.04
2019-03-02T14:28:37.248Z,12.81
2019-03-02T14:31:08.870Z,12.84
2019-03-02T14:33:55.891Z,12.84
2019-03-02T14:36:34.805Z,12.76
2019-03-02T14:39:21.500Z,12.68
2019-03-02T14:42:07.804Z,12.74
2019-03-02T14:45:06.224Z,12.73
2019-03-02T14:48:09.438Z,12.68
2019-03-02T14:50:45.568Z,12.60
2019-03-02T14:53:30.872Z,12.52
2019-03-02T14:56:18.882Z,12.54
2019-03-02T14:59:10.246Z,12.54
2019-03-02T15:01:53.488Z,12.55
2019-03-02T15:04:34.312Z,12.57
2019-03-02T15:07:11.880Z,12.52
2019-03-02T15:09:57.146Z,12.53
2019-03-02T15:12:36.045Z,12.48
2019-03-02T15:15:31.694Z,12.46
2019-03-02T15:18:23.048Z,12.33
2019-03-02T15:21:20.784Z,12.27
2019-03-02T15:24:02.214Z,12.38
2019-03-02T15:26:48.581Z,12.41
2019-03-02T15:29:50.329Z,12.35
2019-03-02T15:32:24.359Z,12.23
2019-03-02T15:35:16.035Z,12.30
2019-03-02T15:38:08.617Z,12.10
2019-03-02T15:41:05.369Z,12.11
2019-03-02T15:43:59.877Z,12.22
2019-03-02T15:46:37.170Z,12.20
2019-03-02T15:49:25.898Z,12.19
2019-03-02T15:52:04.222Z,12.35
2019-03-02T15:54:41.289Z,12.20
2019-03-02T15:57:26.250Z,12.21
2019-03-02T16:00:20.865Z,12.19
2019-03-02T16:02:57.334Z,12.18
2019-03-02T16:05:49.941Z,12.23
2019-03-02T16:08:36.759Z,12.17
2019-03-02T16:11:20.277Z,12.15
2019-03-02T16:14:04.377Z,12.08
2019-03-02T16:16:44.508Z,12.21
2019-03-02T16:19:42.624Z,12.01
2019-03-02T16:22:33.301Z,11.95
2019-03-02T16:25:18.695Z,11.90
2019-03-02T16:28:06.048Z,11.81
2019-03-02T16:30:41.327Z,11.64
2019-03-02T16:33:31.197Z,11.54
2019-03-02T16:36:16.986Z,11.57
2019-03-02T16:39:06.918Z,11.56
2019-03-02T16:42:14.084Z,11.57
2019-03-02T16:44:59.329Z,11.56
2019-03-02T16:47:37.619Z,11.55
2019-03-02T16:50:16.816Z,11.54
2019-03-02T16:52:59.180Z,11.48
2019-03-02T16:55:45.276Z,11.41
2019-03-02T16:58:32.808Z,11.39
2019-03-02T17:01:09.919Z,11.36
2019-03-02T17:03:50.065Z,11.35
2019-03-02T17:06:28.862Z,11.37
2019-03-02T17:09:07.932Z,11.33
2019-03-02T17:11:43.742Z,11.32
2019-03-02T17:14:28.140Z,11.22
2019-03-02T17:17:24.653Z,11.28
2019-03-02T17:20:11.735Z,11.26
2019-03-02T17:23:21.179Z,11.30
2019-03-02T17:26:00.144Z,11.02
2019-03-02T17:28:44.804Z,10.99
2019-03-02T17:31:19.390Z,11.10
2019-03-02T17:34:10.812Z,11.11
2019-03-02T17:36:54.271Z,11.15
2019-03-02T17:39:40.669Z,11.16
2019-03-02T17:42:28.087Z,10.99
2019-03-02T17:45:24.092Z,10.89
2019-03-02T17:48:19.204Z,10.88
2019-03-02T17:50:58.728Z,10.92
2019-03-02T17:53:38.521Z,10.87
2019-03-02T17:56:40.970Z,10.95
2019-03-02T17:59:24.894Z,10.92
2019-03-02T18:01:58.335Z,10.96
2019-03-02T18:04:35.446Z,10.95
2019-03-02T18:07:13.523Z,10.91
2019-03-02T18:10:00.978Z,10.88
2019-03-02T18:12:38.209Z,10.81
2019-03-02T18:15:40.524Z,10.87
2019-03-02T18:18:10.284Z,10.89
2019-03-02T18:20:37.154Z,10.90
2019-03-02T18:23:04.667Z,10.92
2019-03-02T18:25:31.386Z,10.92
2019-03-02T18:27:59.337Z,10.82
2019-03-02T18:30:29.104Z,10.81
2019-03-02T18:33:00.058Z,10.81
2019-03-02T18:35:26.823Z,10.74
2019-03-02T18:37:53.648Z,10.73
2019-03-02T18:40:21.761Z,10.68
2019-03-02T18:42:48.743Z,10.66
2019-03-02T18:45:15.481Z,10.71
2019-03-02T18:47:42.233Z,10.70
2019-03-02T18:50:33.827Z,10.69
2019-03-02T18:53:03.859Z,10.77
2019-03-02T18:55:31.178Z,10.77
2019-03-02T18:57:58.817Z,10.78
2019-03-02T19:00:28.569Z,10.82
2019-03-02T19:02:55.291Z,10.85
2019-03-02T19:05:28.397Z,10.86
2019-03-02T19:07:56.823Z,10.88
2019-03-02T19:10:23.785Z,10.89
2019-03-02T19:12:50.622Z,10.89
2019-03-02T19:15:17.340Z,10.94
2019-03-02T19:17:47.749Z,10.93
2019-03-02T19:20:14.474Z,10.83
2019-03-02T19:22:42.698Z,10.73
2019-03-02T19:25:09.422Z,10.84
2019-03-02T19:27:36.124Z,10.87
2019-03-02T19:30:03.132Z,10.89
2019-03-02T19:32:30.057Z,10.79
2019-03-02T19:34:56.770Z,10.74
2019-03-02T19:37:23.838Z,10.77
2019-03-02T19:39:50.612Z,10.81
2019-03-02T19:42:17.460Z,10.79
2019-03-02T19:44:44.202Z,10.77
2019-03-02T19:47:11.368Z,10.79
2019-03-02T19:49:43.794Z,10.87
2019-03-02T19:52:16.812Z,10.86
2019-03-02T19:54:49.457Z,10.84
2019-03-02T19:57:16.324Z,10.78
2019-03-02T19:59:43.048Z,10.81
2019-03-02T20:02:10.070Z,10.79
2019-03-02T20:04:36.803Z,10.71
2019-03-02T20:07:03.855Z,10.68
2019-03-02T20:09:30.595Z,10.69
2019-03-02T20:11:57.335Z,10.77
2019-03-02T20:14:24.396Z,10.84
2019-03-02T20:16:51.142Z,10.78
2019-03-02T20:19:17.882Z,10.76
2019-03-02T20:21:44.629Z,10.69
2019-03-02T20:24:11.499Z,10.76
2019-03-02T20:26:38.301Z,10.79
2019-03-02T20:29:05.017Z,10.73
2019-03-02T20:31:31.736Z,10.71
2019-03-02T20:33:58.788Z,10.77
2019-03-02T20:36:25.536Z,10.82
2019-03-02T20:38:52.318Z,10.77
2019-03-02T20:41:19.060Z,10.74
2019-03-02T20:43:47.057Z,10.73
2019-03-02T20:46:13.805Z,10.76
2019-03-02T20:48:40.549Z,10.82
2019-03-02T20:51:07.303Z,10.77
2019-03-02T20:53:34.179Z,10.82
2019-03-02T20:56:01.322Z,10.81
2019-03-02T20:58:28.046Z,10.84
2019-03-02T21:00:54.906Z,10.82
2019-03-02T21:03:23.162Z,10.82
2019-03-02T21:05:49.838Z,10.86
2019-03-02T21:08:16.645Z,10.88
2019-03-02T21:10:44.081Z,10.93
2019-03-02T21:13:10.872Z,10.91
2019-03-02T21:15:38.449Z,10.93
2019-03-02T21:18:05.370Z,11.01
2019-03-02T21:20:32.086Z,11.01
2019-03-02T21:22:58.823Z,10.97
2019-03-02T21:25:26.497Z,10.93
2019-03-02T21:27:54.785Z,10.96
2019-03-02T21:30:21.596Z,10.95
2019-03-02T21:32:49.090Z,11.03
2019-03-02T21:35:18.216Z,11.04
2019-03-02T21:37:44.914Z,11.12
2019-03-02T21:40:14.248Z,11.13
2019-03-02T21:42:41.257Z,11.08
2019-03-02T21:45:12.631Z,11.09
2019-03-02T21:47:39.656Z,9.97
2019-03-02T21:50:10.746Z,11.03
2019-03-02T21:52:37.254Z,11.01
2019-03-02T21:55:04.398Z,11.02
2019-03-02T21:57:32.172Z,11.03
2019-03-02T21:59:58.871Z,11.03
2019-03-02T22:02:25.699Z,11.05
2019-03-02T22:04:52.482Z,10.95
2019-03-02T22:07:19.636Z,11.02
2019-03-02T22:09:46.583Z,10.99
2019-03-02T22:12:13.409Z,10.94
2019-03-02T22:14:40.141Z,10.93
2019-03-02T22:17:06.838Z,10.87
2019-03-02T22:19:33.990Z,10.82
2019-03-02T22:22:00.722Z,10.81
2019-03-02T22:24:27.438Z,10.80
2019-03-02T22:26:54.312Z,10.84
2019-03-02T22:29:21.019Z,10.86
2019-03-02T22:31:47.765Z,10.82
2019-03-02T22:34:14.950Z,10.83
2019-03-02T22:36:41.708Z,10.82
2019-03-02T22:39:08.595Z,10.84
2019-03-02T22:41:35.403Z,10.53
2019-03-02T22:44:02.990Z,10.75
2019-03-02T22:46:29.896Z,10.71
2019-03-02T22:48:56.647Z,10.70
2019-03-02T22:51:23.407Z,10.74
2019-03-02T22:53:50.122Z,10.75
2019-03-02T22:56:16.871Z,10.76
2019-03-02T22:58:46.411Z,10.75
2019-03-02T23:01:52.073Z,10.79
2019-03-02T23:04:18.827Z,10.81
2019-03-02T23:06:45.597Z,10.78
2019-03-02T23:09:12.401Z,10.76
2019-03-02T23:11:39.183Z,10.63
2019-03-02T23:14:06.131Z,10.61
2019-03-02T23:16:32.850Z,10.59
2019-03-02T23:18:59.587Z,10.68
2019-03-02T23:21:28.921Z,10.64
2019-03-02T23:23:55.649Z,10.63
2019-03-02T23:26:22.407Z,10.62
2019-03-02T23:28:49.235Z,10.70
2019-03-02T23:31:16.108Z,10.75
2019-03-02T23:33:42.823Z,10.68
2019-03-02T23:36:09.573Z,10.63
2019-03-02T23:38:36.285Z,10.68
2019-03-02T23:41:03.804Z,10.72
2019-03-02T23:43:30.593Z,10.79
2019-03-02T23:45:57.324Z,10.63
2019-03-02T23:48:24.159Z,10.68
2019-03-02T23:50:50.935Z,10.69
2019-03-02T23:53:17.725Z,10.72
2019-03-02T23:55:44.508Z,10.76
2019-03-02T23:58:14.640Z,10.73
